sensor_id;sensor_type;location;lat;lon;timestamp;P1;durP1;ratioP1;P2;durP2;ratioP2
76477;SDS011;65309;49.790;18.972;2023-04-16T00:04:27;1.20;;;1.08;;
76477;SDS011;65309;49.790;18.972;2023-04-16T00:09:29;1.20;;;0.85;;
76477;SDS011;65309;49.790;18.972;2023-04-16T00:14:32;1.13;;;0.68;;
76477;SDS011;65309;49.790;18.972;2023-04-16T00:19:34;1.00;;;0.90;;
76477;SDS011;65309;49.790;18.972;2023-04-16T00:24:36;0.98;;;0.75;;
76477;SDS011;65309;49.790;18.972;2023-04-16T00:29:40;2.25;;;1.60;;
76477;SDS011;65309;49.790;18.972;2023-04-16T00:34:41;1.25;;;1.00;;
76477;SDS011;65309;49.790;18.972;2023-04-16T00:39:43;1.95;;;0.98;;
76477;SDS011;65309;49.790;18.972;2023-04-16T00:44:47;1.02;;;0.93;;
76477;SDS011;65309;49.790;18.972;2023-04-16T00:49:49;0.70;;;0.70;;
76477;SDS011;65309;49.790;18.972;2023-04-16T00:54:51;1.95;;;1.25;;
76477;SDS011;65309;49.790;18.972;2023-04-16T00:59:55;1.58;;;0.90;;
76477;SDS011;65309;49.790;18.972;2023-04-16T01:04:58;1.17;;;1.05;;
76477;SDS011;65309;49.790;18.972;2023-04-16T01:10:01;1.75;;;0.80;;
76477;SDS011;65309;49.790;18.972;2023-04-16T01:15:05;1.63;;;0.77;;
76477;SDS011;65309;49.790;18.972;2023-04-16T01:20:08;1.42;;;1.08;;
76477;SDS011;65309;49.790;18.972;2023-04-16T01:25:14;1.55;;;0.80;;
76477;SDS011;65309;49.790;18.972;2023-04-16T01:30:16;0.75;;;0.73;;
76477;SDS011;65309;49.790;18.972;2023-04-16T01:35:18;1.25;;;0.65;;
76477;SDS011;65309;49.790;18.972;2023-04-16T01:40:22;0.40;;;0.40;;
76477;SDS011;65309;49.790;18.972;2023-04-16T01:45:24;2.15;;;1.00;;
76477;SDS011;65309;49.790;18.972;2023-04-16T01:50:26;0.90;;;0.65;;
76477;SDS011;65309;49.790;18.972;2023-04-16T01:55:30;1.38;;;0.73;;
76477;SDS011;65309;49.790;18.972;2023-04-16T02:05:34;0.43;;;0.35;;
76477;SDS011;65309;49.790;18.972;2023-04-16T02:10:37;2.50;;;1.35;;
76477;SDS011;65309;49.790;18.972;2023-04-16T02:15:43;1.58;;;1.02;;
76477;SDS011;65309;49.790;18.972;2023-04-16T02:20:46;0.80;;;0.60;;
76477;SDS011;65309;49.790;18.972;2023-04-16T02:25:49;1.83;;;0.75;;
76477;SDS011;65309;49.790;18.972;2023-04-16T02:30:52;0.65;;;0.30;;
76477;SDS011;65309;49.790;18.972;2023-04-16T02:35:54;0.60;;;0.60;;
76477;SDS011;65309;49.790;18.972;2023-04-16T02:40:57;1.30;;;0.80;;
76477;SDS011;65309;49.790;18.972;2023-04-16T02:46:00;0.50;;;0.50;;
76477;SDS011;65309;49.790;18.972;2023-04-16T02:51:02;1.30;;;1.15;;
76477;SDS011;65309;49.790;18.972;2023-04-16T02:56:05;1.65;;;0.90;;
76477;SDS011;65309;49.790;18.972;2023-04-16T03:01:08;1.40;;;0.90;;
76477;SDS011;65309;49.790;18.972;2023-04-16T03:06:10;1.15;;;0.65;;
76477;SDS011;65309;49.790;18.972;2023-04-16T03:11:13;0.80;;;0.60;;
76477;SDS011;65309;49.790;18.972;2023-04-16T03:16:15;1.45;;;1.05;;
76477;SDS011;65309;49.790;18.972;2023-04-16T03:21:17;0.50;;;0.50;;
76477;SDS011;65309;49.790;18.972;2023-04-16T03:26:21;0.95;;;0.93;;
76477;SDS011;65309;49.790;18.972;2023-04-16T03:31:23;0.70;;;0.65;;
76477;SDS011;65309;49.790;18.972;2023-04-16T03:36:25;1.02;;;0.85;;
76477;SDS011;65309;49.790;18.972;2023-04-16T03:41:29;2.85;;;1.60;;
76477;SDS011;65309;49.790;18.972;2023-04-16T03:46:31;5.03;;;2.38;;
76477;SDS011;65309;49.790;18.972;2023-04-16T03:51:33;3.97;;;2.58;;
76477;SDS011;65309;49.790;18.972;2023-04-16T03:56:36;5.35;;;2.83;;
76477;SDS011;65309;49.790;18.972;2023-04-16T04:01:40;4.10;;;3.08;;
76477;SDS011;65309;49.790;18.972;2023-04-16T04:06:43;9.13;;;5.85;;
76477;SDS011;65309;49.790;18.972;2023-04-16T04:11:47;7.47;;;4.60;;
76477;SDS011;65309;49.790;18.972;2023-04-16T04:16:49;6.03;;;3.35;;
76477;SDS011;65309;49.790;18.972;2023-04-16T04:21:51;5.70;;;3.65;;
76477;SDS011;65309;49.790;18.972;2023-04-16T04:26:54;3.28;;;2.70;;
76477;SDS011;65309;49.790;18.972;2023-04-16T04:31:57;3.35;;;2.72;;
76477;SDS011;65309;49.790;18.972;2023-04-16T04:37:00;2.13;;;1.52;;
76477;SDS011;65309;49.790;18.972;2023-04-16T04:42:03;2.58;;;1.40;;
76477;SDS011;65309;49.790;18.972;2023-04-16T04:47:05;2.15;;;1.50;;
76477;SDS011;65309;49.790;18.972;2023-04-16T04:52:07;1.73;;;1.45;;
76477;SDS011;65309;49.790;18.972;2023-04-16T04:57:10;2.40;;;1.70;;
76477;SDS011;65309;49.790;18.972;2023-04-16T05:02:12;1.75;;;1.60;;
76477;SDS011;65309;49.790;18.972;2023-04-16T05:07:14;2.13;;;1.33;;
76477;SDS011;65309;49.790;18.972;2023-04-16T05:12:18;2.78;;;1.67;;
76477;SDS011;65309;49.790;18.972;2023-04-16T05:17:20;1.98;;;0.98;;
76477;SDS011;65309;49.790;18.972;2023-04-16T05:22:22;1.55;;;0.98;;
76477;SDS011;65309;49.790;18.972;2023-04-16T05:27:25;2.42;;;1.77;;
76477;SDS011;65309;49.790;18.972;2023-04-16T05:32:27;1.83;;;1.30;;
76477;SDS011;65309;49.790;18.972;2023-04-16T05:37:29;3.28;;;2.55;;
76477;SDS011;65309;49.790;18.972;2023-04-16T05:42:33;4.60;;;2.78;;
76477;SDS011;65309;49.790;18.972;2023-04-16T05:47:34;3.90;;;2.55;;
76477;SDS011;65309;49.790;18.972;2023-04-16T05:52:37;4.50;;;3.20;;
76477;SDS011;65309;49.790;18.972;2023-04-16T05:57:40;5.53;;;3.78;;
76477;SDS011;65309;49.790;18.972;2023-04-16T06:07:44;8.10;;;4.25;;
76477;SDS011;65309;49.790;18.972;2023-04-16T06:12:47;6.28;;;4.55;;
76477;SDS011;65309;49.790;18.972;2023-04-16T06:22:51;9.10;;;4.90;;
76477;SDS011;65309;49.790;18.972;2023-04-16T06:27:55;5.90;;;3.40;;
76477;SDS011;65309;49.790;18.972;2023-04-16T06:32:57;4.15;;;2.67;;
76477;SDS011;65309;49.790;18.972;2023-04-16T06:37:59;3.28;;;2.80;;
76477;SDS011;65309;49.790;18.972;2023-04-16T06:43:02;5.40;;;2.83;;
76477;SDS011;65309;49.790;18.972;2023-04-16T06:48:04;3.88;;;2.50;;
76477;SDS011;65309;49.790;18.972;2023-04-16T06:53:07;4.00;;;2.72;;
76477;SDS011;65309;49.790;18.972;2023-04-16T06:58:10;5.45;;;3.53;;
76477;SDS011;65309;49.790;18.972;2023-04-16T07:03:12;13.35;;;2.28;;
76477;SDS011;65309;49.790;18.972;2023-04-16T07:08:15;4.82;;;2.67;;
76477;SDS011;65309;49.790;18.972;2023-04-16T07:13:18;3.58;;;2.40;;
76477;SDS011;65309;49.790;18.972;2023-04-16T07:18:22;3.92;;;2.78;;
76477;SDS011;65309;49.790;18.972;2023-04-16T07:23:24;4.03;;;2.65;;
76477;SDS011;65309;49.790;18.972;2023-04-16T07:28:27;3.75;;;2.70;;
76477;SDS011;65309;49.790;18.972;2023-04-16T07:33:29;3.53;;;2.28;;
76477;SDS011;65309;49.790;18.972;2023-04-16T07:38:31;4.07;;;3.22;;
76477;SDS011;65309;49.790;18.972;2023-04-16T07:43:36;3.88;;;2.50;;
76477;SDS011;65309;49.790;18.972;2023-04-16T07:48:38;4.82;;;3.47;;
76477;SDS011;65309;49.790;18.972;2023-04-16T07:53:40;5.13;;;3.38;;
76477;SDS011;65309;49.790;18.972;2023-04-16T07:58:45;3.47;;;2.45;;
76477;SDS011;65309;49.790;18.972;2023-04-16T08:03:47;4.53;;;3.17;;
76477;SDS011;65309;49.790;18.972;2023-04-16T08:08:49;6.28;;;3.20;;
76477;SDS011;65309;49.790;18.972;2023-04-16T08:13:53;4.70;;;2.80;;
76477;SDS011;65309;49.790;18.972;2023-04-16T08:18:55;3.83;;;3.22;;
76477;SDS011;65309;49.790;18.972;2023-04-16T08:23:57;6.50;;;4.05;;
76477;SDS011;65309;49.790;18.972;2023-04-16T08:29:00;5.65;;;3.65;;
76477;SDS011;65309;49.790;18.972;2023-04-16T08:34:02;2.85;;;2.08;;
76477;SDS011;65309;49.790;18.972;2023-04-16T08:39:04;6.50;;;3.60;;
76477;SDS011;65309;49.790;18.972;2023-04-16T08:44:08;4.35;;;3.33;;
76477;SDS011;65309;49.790;18.972;2023-04-16T08:49:15;4.80;;;3.40;;
76477;SDS011;65309;49.790;18.972;2023-04-16T08:54:30;4.80;;;3.15;;
76477;SDS011;65309;49.790;18.972;2023-04-16T08:59:36;6.43;;;3.42;;
76477;SDS011;65309;49.790;18.972;2023-04-16T09:04:38;4.15;;;3.25;;
76477;SDS011;65309;49.790;18.972;2023-04-16T09:09:42;4.65;;;3.58;;
76477;SDS011;65309;49.790;18.972;2023-04-16T09:14:47;4.22;;;3.47;;
76477;SDS011;65309;49.790;18.972;2023-04-16T09:19:50;8.27;;;4.40;;
76477;SDS011;65309;49.790;18.972;2023-04-16T09:24:52;6.43;;;4.13;;
76477;SDS011;65309;49.790;18.972;2023-04-16T09:29:55;4.55;;;3.00;;
76477;SDS011;65309;49.790;18.972;2023-04-16T09:34:57;5.88;;;3.63;;
76477;SDS011;65309;49.790;18.972;2023-04-16T09:40:01;4.28;;;3.22;;
76477;SDS011;65309;49.790;18.972;2023-04-16T09:45:07;4.70;;;3.63;;
76477;SDS011;65309;49.790;18.972;2023-04-16T09:50:09;5.07;;;3.63;;
76477;SDS011;65309;49.790;18.972;2023-04-16T09:55:21;3.70;;;3.30;;
76477;SDS011;65309;49.790;18.972;2023-04-16T10:00:25;5.13;;;2.80;;
76477;SDS011;65309;49.790;18.972;2023-04-16T10:05:29;4.78;;;3.25;;
76477;SDS011;65309;49.790;18.972;2023-04-16T10:10:31;5.10;;;3.38;;
76477;SDS011;65309;49.790;18.972;2023-04-16T10:15:34;5.55;;;2.67;;
76477;SDS011;65309;49.790;18.972;2023-04-16T10:20:36;3.60;;;2.33;;
76477;SDS011;65309;49.790;18.972;2023-04-16T10:25:39;5.15;;;3.40;;
76477;SDS011;65309;49.790;18.972;2023-04-16T10:30:46;3.00;;;2.22;;
76477;SDS011;65309;49.790;18.972;2023-04-16T10:36:06;5.95;;;2.78;;
76477;SDS011;65309;49.790;18.972;2023-04-16T10:41:10;4.40;;;2.95;;
76477;SDS011;65309;49.790;18.972;2023-04-16T10:46:21;4.55;;;2.75;;
76477;SDS011;65309;49.790;18.972;2023-04-16T10:51:25;3.58;;;2.20;;
76477;SDS011;65309;49.790;18.972;2023-04-16T10:56:30;3.17;;;2.42;;
76477;SDS011;65309;49.790;18.972;2023-04-16T11:01:35;5.28;;;3.10;;
76477;SDS011;65309;49.790;18.972;2023-04-16T11:06:38;3.25;;;2.70;;
76477;SDS011;65309;49.790;18.972;2023-04-16T11:11:40;1.83;;;1.70;;
76477;SDS011;65309;49.790;18.972;2023-04-16T11:16:44;4.20;;;2.58;;
76477;SDS011;65309;49.790;18.972;2023-04-16T11:21:46;3.25;;;2.30;;
76477;SDS011;65309;49.790;18.972;2023-04-16T11:26:49;9.82;;;5.13;;
76477;SDS011;65309;49.790;18.972;2023-04-16T11:31:53;8.05;;;4.65;;
76477;SDS011;65309;49.790;18.972;2023-04-16T11:36:56;3.75;;;2.30;;
76477;SDS011;65309;49.790;18.972;2023-04-16T11:41:58;2.67;;;2.00;;
76477;SDS011;65309;49.790;18.972;2023-04-16T11:47:04;3.40;;;2.10;;
76477;SDS011;65309;49.790;18.972;2023-04-16T11:52:07;2.30;;;1.90;;
76477;SDS011;65309;49.790;18.972;2023-04-16T11:57:09;3.17;;;2.10;;
76477;SDS011;65309;49.790;18.972;2023-04-16T12:02:13;1.60;;;1.50;;
76477;SDS011;65309;49.790;18.972;2023-04-16T12:07:15;4.78;;;2.70;;
76477;SDS011;65309;49.790;18.972;2023-04-16T12:12:24;2.65;;;1.92;;
76477;SDS011;65309;49.790;18.972;2023-04-16T12:17:28;3.70;;;2.75;;
76477;SDS011;65309;49.790;18.972;2023-04-16T12:22:32;2.60;;;1.92;;
76477;SDS011;65309;49.790;18.972;2023-04-16T12:27:41;3.15;;;1.73;;
76477;SDS011;65309;49.790;18.972;2023-04-16T12:32:47;2.50;;;1.55;;
76477;SDS011;65309;49.790;18.972;2023-04-16T12:37:51;1.85;;;1.50;;
76477;SDS011;65309;49.790;18.972;2023-04-16T12:42:53;3.63;;;2.28;;
76477;SDS011;65309;49.790;18.972;2023-04-16T12:47:56;2.60;;;1.90;;
76477;SDS011;65309;49.790;18.972;2023-04-16T12:52:59;3.08;;;2.25;;
76477;SDS011;65309;49.790;18.972;2023-04-16T12:58:01;3.17;;;1.95;;
76477;SDS011;65309;49.790;18.972;2023-04-16T13:03:04;2.45;;;2.00;;
76477;SDS011;65309;49.790;18.972;2023-04-16T13:08:06;1.92;;;1.83;;
76477;SDS011;65309;49.790;18.972;2023-04-16T13:13:08;2.63;;;1.70;;
76477;SDS011;65309;49.790;18.972;2023-04-16T13:18:12;4.00;;;2.28;;
76477;SDS011;65309;49.790;18.972;2023-04-16T13:23:14;2.70;;;2.08;;
76477;SDS011;65309;49.790;18.972;2023-04-16T13:28:16;3.05;;;1.55;;
76477;SDS011;65309;49.790;18.972;2023-04-16T13:33:19;2.08;;;1.80;;
76477;SDS011;65309;49.790;18.972;2023-04-16T13:38:22;2.88;;;1.90;;
76477;SDS011;65309;49.790;18.972;2023-04-16T13:43:23;3.92;;;2.53;;
76477;SDS011;65309;49.790;18.972;2023-04-16T13:48:27;2.33;;;1.90;;
76477;SDS011;65309;49.790;18.972;2023-04-16T13:53:29;3.45;;;1.33;;
76477;SDS011;65309;49.790;18.972;2023-04-16T13:58:32;3.33;;;1.80;;
76477;SDS011;65309;49.790;18.972;2023-04-16T14:03:35;5.47;;;2.40;;
76477;SDS011;65309;49.790;18.972;2023-04-16T14:08:39;3.17;;;2.30;;
76477;SDS011;65309;49.790;18.972;2023-04-16T14:13:41;2.42;;;1.98;;
76477;SDS011;65309;49.790;18.972;2023-04-16T14:18:44;2.55;;;2.05;;
76477;SDS011;65309;49.790;18.972;2023-04-16T14:23:48;3.63;;;2.22;;
76477;SDS011;65309;49.790;18.972;2023-04-16T14:28:50;3.38;;;2.25;;
76477;SDS011;65309;49.790;18.972;2023-04-16T14:33:53;2.78;;;2.28;;
76477;SDS011;65309;49.790;18.972;2023-04-16T14:38:55;3.65;;;2.00;;
76477;SDS011;65309;49.790;18.972;2023-04-16T14:43:57;3.45;;;2.03;;
76477;SDS011;65309;49.790;18.972;2023-04-16T14:49:02;3.13;;;1.83;;
76477;SDS011;65309;49.790;18.972;2023-04-16T14:54:04;3.28;;;2.13;;
76477;SDS011;65309;49.790;18.972;2023-04-16T14:59:06;3.65;;;1.85;;
76477;SDS011;65309;49.790;18.972;2023-04-16T15:04:10;3.33;;;2.40;;
76477;SDS011;65309;49.790;18.972;2023-04-16T15:09:12;2.92;;;2.17;;
76477;SDS011;65309;49.790;18.972;2023-04-16T15:14:14;2.47;;;1.75;;
76477;SDS011;65309;49.790;18.972;2023-04-16T15:19:18;3.45;;;2.25;;
76477;SDS011;65309;49.790;18.972;2023-04-16T15:24:20;3.15;;;2.17;;
76477;SDS011;65309;49.790;18.972;2023-04-16T15:29:23;2.97;;;1.83;;
76477;SDS011;65309;49.790;18.972;2023-04-16T15:34:26;3.65;;;2.15;;
76477;SDS011;65309;49.790;18.972;2023-04-16T15:39:29;2.90;;;2.20;;
76477;SDS011;65309;49.790;18.972;2023-04-16T15:44:31;3.45;;;2.22;;
76477;SDS011;65309;49.790;18.972;2023-04-16T15:54:37;3.10;;;2.25;;
76477;SDS011;65309;49.790;18.972;2023-04-16T15:59:39;5.00;;;2.42;;
76477;SDS011;65309;49.790;18.972;2023-04-16T16:04:42;2.72;;;2.08;;
76477;SDS011;65309;49.790;18.972;2023-04-16T16:09:46;3.75;;;2.45;;
76477;SDS011;65309;49.790;18.972;2023-04-16T16:14:48;3.05;;;1.95;;
76477;SDS011;65309;49.790;18.972;2023-04-16T16:19:52;4.57;;;3.00;;
76477;SDS011;65309;49.790;18.972;2023-04-16T16:24:54;2.75;;;2.03;;
76477;SDS011;65309;49.790;18.972;2023-04-16T16:29:58;3.20;;;2.20;;
76477;SDS011;65309;49.790;18.972;2023-04-16T16:35:03;4.00;;;2.78;;
76477;SDS011;65309;49.790;18.972;2023-04-16T16:40:05;4.03;;;3.00;;
76477;SDS011;65309;49.790;18.972;2023-04-16T16:45:08;4.25;;;2.90;;
76477;SDS011;65309;49.790;18.972;2023-04-16T16:50:14;3.72;;;3.10;;
76477;SDS011;65309;49.790;18.972;2023-04-16T16:55:16;5.60;;;3.35;;
76477;SDS011;65309;49.790;18.972;2023-04-16T17:00:19;5.43;;;3.60;;
76477;SDS011;65309;49.790;18.972;2023-04-16T17:05:23;5.80;;;3.88;;
76477;SDS011;65309;49.790;18.972;2023-04-16T17:10:26;6.47;;;4.00;;
76477;SDS011;65309;49.790;18.972;2023-04-16T17:20:31;13.85;;;7.47;;
76477;SDS011;65309;49.790;18.972;2023-04-16T17:25:34;16.55;;;10.27;;
76477;SDS011;65309;49.790;18.972;2023-04-16T17:30:36;16.92;;;8.85;;
76477;SDS011;65309;49.790;18.972;2023-04-16T17:35:39;18.95;;;9.30;;
76477;SDS011;65309;49.790;18.972;2023-04-16T17:40:41;13.25;;;6.55;;
76477;SDS011;65309;49.790;18.972;2023-04-16T17:45:43;7.63;;;5.03;;
76477;SDS011;65309;49.790;18.972;2023-04-16T17:50:47;8.45;;;4.75;;
76477;SDS011;65309;49.790;18.972;2023-04-16T17:55:50;5.97;;;3.53;;
76477;SDS011;65309;49.790;18.972;2023-04-16T18:00:53;5.00;;;3.50;;
76477;SDS011;65309;49.790;18.972;2023-04-16T18:05:57;4.40;;;2.88;;
76477;SDS011;65309;49.790;18.972;2023-04-16T18:10:59;5.18;;;3.38;;
76477;SDS011;65309;49.790;18.972;2023-04-16T18:16:01;4.15;;;3.03;;
76477;SDS011;65309;49.790;18.972;2023-04-16T18:21:05;5.13;;;3.00;;
76477;SDS011;65309;49.790;18.972;2023-04-16T18:26:07;4.85;;;3.22;;
76477;SDS011;65309;49.790;18.972;2023-04-16T18:31:11;4.55;;;3.13;;
76477;SDS011;65309;49.790;18.972;2023-04-16T18:36:14;8.02;;;3.97;;
76477;SDS011;65309;49.790;18.972;2023-04-16T18:41:16;14.07;;;9.27;;
76477;SDS011;65309;49.790;18.972;2023-04-16T18:46:19;14.68;;;8.27;;
76477;SDS011;65309;49.790;18.972;2023-04-16T18:51:22;5.20;;;3.05;;
76477;SDS011;65309;49.790;18.972;2023-04-16T18:56:27;3.80;;;2.53;;
76477;SDS011;65309;49.790;18.972;2023-04-16T19:01:29;3.83;;;2.65;;
76477;SDS011;65309;49.790;18.972;2023-04-16T19:06:33;4.82;;;2.83;;
76477;SDS011;65309;49.790;18.972;2023-04-16T19:11:35;3.25;;;2.40;;
76477;SDS011;65309;49.790;18.972;2023-04-16T19:16:37;8.85;;;4.05;;
76477;SDS011;65309;49.790;18.972;2023-04-16T19:21:40;5.90;;;3.15;;
76477;SDS011;65309;49.790;18.972;2023-04-16T19:26:42;5.80;;;3.42;;
76477;SDS011;65309;49.790;18.972;2023-04-16T19:31:44;4.82;;;3.17;;
76477;SDS011;65309;49.790;18.972;2023-04-16T19:36:49;5.88;;;3.03;;
76477;SDS011;65309;49.790;18.972;2023-04-16T19:41:51;4.72;;;2.83;;
76477;SDS011;65309;49.790;18.972;2023-04-16T19:46:53;4.82;;;2.97;;
76477;SDS011;65309;49.790;18.972;2023-04-16T19:51:56;4.38;;;2.25;;
76477;SDS011;65309;49.790;18.972;2023-04-16T19:56:58;4.00;;;2.80;;
76477;SDS011;65309;49.790;18.972;2023-04-16T20:02:00;4.05;;;2.15;;
76477;SDS011;65309;49.790;18.972;2023-04-16T20:07:04;4.00;;;2.95;;
76477;SDS011;65309;49.790;18.972;2023-04-16T20:12:06;4.00;;;2.85;;
76477;SDS011;65309;49.790;18.972;2023-04-16T20:17:08;5.28;;;3.42;;
76477;SDS011;65309;49.790;18.972;2023-04-16T20:22:12;16.33;;;7.70;;
76477;SDS011;65309;49.790;18.972;2023-04-16T20:27:15;17.58;;;8.95;;
76477;SDS011;65309;49.790;18.972;2023-04-16T20:32:20;7.70;;;4.47;;
76477;SDS011;65309;49.790;18.972;2023-04-16T20:37:23;7.07;;;3.63;;
76477;SDS011;65309;49.790;18.972;2023-04-16T20:42:25;4.38;;;2.90;;
76477;SDS011;65309;49.790;18.972;2023-04-16T20:47:28;7.35;;;3.92;;
76477;SDS011;65309;49.790;18.972;2023-04-16T20:52:31;3.85;;;2.83;;
76477;SDS011;65309;49.790;18.972;2023-04-16T20:57:33;10.07;;;2.95;;
76477;SDS011;65309;49.790;18.972;2023-04-16T21:02:35;4.95;;;3.40;;
76477;SDS011;65309;49.790;18.972;2023-04-16T21:07:40;5.65;;;3.03;;
76477;SDS011;65309;49.790;18.972;2023-04-16T21:12:42;4.95;;;2.67;;
76477;SDS011;65309;49.790;18.972;2023-04-16T21:17:44;4.15;;;2.70;;
76477;SDS011;65309;49.790;18.972;2023-04-16T21:22:47;5.90;;;3.22;;
76477;SDS011;65309;49.790;18.972;2023-04-16T21:27:51;5.90;;;2.75;;
76477;SDS011;65309;49.790;18.972;2023-04-16T21:32:53;3.80;;;2.67;;
76477;SDS011;65309;49.790;18.972;2023-04-16T21:37:57;3.67;;;2.55;;
76477;SDS011;65309;49.790;18.972;2023-04-16T21:42:59;3.70;;;2.60;;
76477;SDS011;65309;49.790;18.972;2023-04-16T21:48:01;5.32;;;3.00;;
76477;SDS011;65309;49.790;18.972;2023-04-16T21:53:05;4.07;;;2.97;;
76477;SDS011;65309;49.790;18.972;2023-04-16T21:58:07;4.43;;;2.85;;
76477;SDS011;65309;49.790;18.972;2023-04-16T22:03:09;5.10;;;2.63;;
76477;SDS011;65309;49.790;18.972;2023-04-16T22:08:14;4.55;;;2.50;;
76477;SDS011;65309;49.790;18.972;2023-04-16T22:13:25;5.70;;;2.83;;
76477;SDS011;65309;49.790;18.972;2023-04-16T22:18:28;3.40;;;2.80;;
76477;SDS011;65309;49.790;18.972;2023-04-16T22:23:35;6.32;;;3.47;;
76477;SDS011;65309;49.790;18.972;2023-04-16T22:28:37;6.15;;;3.15;;
76477;SDS011;65309;49.790;18.972;2023-04-16T22:33:39;2.45;;;2.22;;
76477;SDS011;65309;49.790;18.972;2023-04-16T22:38:42;3.17;;;2.45;;
76477;SDS011;65309;49.790;18.972;2023-04-16T22:43:44;2.20;;;1.88;;
76477;SDS011;65309;49.790;18.972;2023-04-16T22:48:46;4.32;;;2.15;;
76477;SDS011;65309;49.790;18.972;2023-04-16T22:53:50;3.03;;;2.20;;
76477;SDS011;65309;49.790;18.972;2023-04-16T22:58:52;4.43;;;3.13;;
76477;SDS011;65309;49.790;18.972;2023-04-16T23:03:54;3.45;;;2.42;;
76477;SDS011;65309;49.790;18.972;2023-04-16T23:08:58;4.00;;;2.20;;
76477;SDS011;65309;49.790;18.972;2023-04-16T23:14:00;4.97;;;2.28;;
76477;SDS011;65309;49.790;18.972;2023-04-16T23:19:03;5.40;;;2.95;;
76477;SDS011;65309;49.790;18.972;2023-04-16T23:24:06;3.13;;;2.22;;
76477;SDS011;65309;49.790;18.972;2023-04-16T23:34:11;3.75;;;2.85;;
76477;SDS011;65309;49.790;18.972;2023-04-16T23:39:14;4.38;;;3.08;;
76477;SDS011;65309;49.790;18.972;2023-04-16T23:44:16;6.03;;;3.10;;
76477;SDS011;65309;49.790;18.972;2023-04-16T23:49:18;3.88;;;2.35;;
76477;SDS011;65309;49.790;18.972;2023-04-16T23:54:22;3.08;;;2.45;;
76477;SDS011;65309;49.790;18.972;2023-04-16T23:59:24;5.32;;;2.28;;
